sensor_id;sensor_type;location;lat;lon;timestamp;pressure;altitude;pressure_sealevel;temperature;humidity
17450;BME280;8842;51.244;7.102;2023-03-01T00:04:00;100713.75;;;0.44;100.00
17450;BME280;8842;51.244;7.102;2023-03-01T00:09:04;100716.39;;;0.43;100.00
17450;BME280;8842;51.244;7.102;2023-03-01T00:14:08;100715.95;;;0.42;100.00
17450;BME280;8842;51.244;7.102;2023-03-01T00:19:14;100715.95;;;0.42;100.00
17450;BME280;8842;51.244;7.102;2023-03-01T00:24:18;100718.02;;;0.22;100.00
17450;BME280;8842;51.244;7.102;2023-03-01T00:29:23;100709.35;;;0.18;100.00
17450;BME280;8842;51.244;7.102;2023-03-01T00:34:27;100713.96;;;0.31;100.00
17450;BME280;8842;51.244;7.102;2023-03-01T00:44:43;100688.09;;;0.14;100.00
17450;BME280;8842;51.244;7.102;2023-03-01T00:49:47;100687.59;;;0.19;100.00
17450;BME280;8842;51.244;7.102;2023-03-01T00:54:53;100685.13;;;0.10;100.00
17450;BME280;8842;51.244;7.102;2023-03-01T00:59:57;100681.30;;;0.04;100.00
17450;BME280;8842;51.244;7.102;2023-03-01T01:05:01;100682.34;;;-0.37;100.00
17450;BME280;8842;51.244;7.102;2023-03-01T01:10:07;100689.81;;;-0.46;100.00
17450;BME280;8842;51.244;7.102;2023-03-01T01:15:11;100684.36;;;-0.60;100.00
17450;BME280;8842;51.244;7.102;2023-03-01T01:20:18;100662.23;;;-0.32;100.00
17450;BME280;8842;51.244;7.102;2023-03-01T01:25:22;100662.84;;;-0.43;100.00
17450;BME280;8842;51.244;7.102;2023-03-01T01:30:28;100646.23;;;-0.38;100.00
17450;BME280;8842;51.244;7.102;2023-03-01T01:35:32;100650.29;;;-0.48;100.00
17450;BME280;8842;51.244;7.102;2023-03-01T01:40:42;100650.29;;;-0.48;100.00
17450;BME280;8842;51.244;7.102;2023-03-01T01:45:47;100625.50;;;-0.48;100.00
17450;BME280;8842;51.244;7.102;2023-03-01T01:50:55;100625.50;;;-0.48;100.00
17450;BME280;8842;51.244;7.102;2023-03-01T01:56:01;100628.08;;;-0.78;100.00
17450;BME280;8842;51.244;7.102;2023-03-01T02:01:05;100618.97;;;-0.79;100.00
17450;BME280;8842;51.244;7.102;2023-03-01T02:06:15;100616.83;;;-0.83;100.00
17450;BME280;8842;51.244;7.102;2023-03-01T02:11:19;100621.20;;;-0.83;100.00
17450;BME280;8842;51.244;7.102;2023-03-01T02:16:25;100619.21;;;-0.99;100.00
17450;BME280;8842;51.244;7.102;2023-03-01T02:21:38;100629.17;;;-0.95;100.00
17450;BME280;8842;51.244;7.102;2023-03-01T02:26:46;100625.75;;;-1.00;100.00
17450;BME280;8842;51.244;7.102;2023-03-01T02:31:53;100614.27;;;-0.86;100.00
17450;BME280;8842;51.244;7.102;2023-03-01T02:37:02;100619.42;;;-0.81;100.00
17450;BME280;8842;51.244;7.102;2023-03-01T02:42:10;100609.47;;;-0.83;100.00
17450;BME280;8842;51.244;7.102;2023-03-01T02:47:15;100599.41;;;-0.79;100.00
17450;BME280;8842;51.244;7.102;2023-03-01T02:52:33;100601.65;;;-0.83;100.00
17450;BME280;8842;51.244;7.102;2023-03-01T02:57:39;100586.91;;;-0.87;100.00
17450;BME280;8842;51.244;7.102;2023-03-01T03:02:44;100595.95;;;-0.81;100.00
17450;BME280;8842;51.244;7.102;2023-03-01T03:07:49;100599.00;;;-0.80;100.00
17450;BME280;8842;51.244;7.102;2023-03-01T03:12:55;100602.55;;;-0.87;100.00
17450;BME280;8842;51.244;7.102;2023-03-01T03:18:00;100589.97;;;-0.88;100.00
17450;BME280;8842;51.244;7.102;2023-03-01T03:23:04;100580.30;;;-0.81;100.00
17450;BME280;8842;51.244;7.102;2023-03-01T03:28:08;100583.80;;;-0.82;100.00
17450;BME280;8842;51.244;7.102;2023-03-01T03:33:13;100589.08;;;-0.87;100.00
17450;BME280;8842;51.244;7.102;2023-03-01T03:38:18;100574.33;;;-0.88;100.00
17450;BME280;8842;51.244;7.102;2023-03-01T03:43:24;100577.07;;;-0.98;100.00
17450;BME280;8842;51.244;7.102;2023-03-01T03:48:29;100569.73;;;-1.03;100.00
17450;BME280;8842;51.244;7.102;2023-03-01T03:53:33;100571.41;;;-0.99;100.00
17450;BME280;8842;51.244;7.102;2023-03-01T03:58:37;100568.92;;;-1.08;100.00
17450;BME280;8842;51.244;7.102;2023-03-01T04:03:42;100564.62;;;-1.11;100.00
17450;BME280;8842;51.244;7.102;2023-03-01T04:08:48;100558.94;;;-1.07;100.00
17450;BME280;8842;51.244;7.102;2023-03-01T04:13:56;100548.49;;;-1.06;100.00
17450;BME280;8842;51.244;7.102;2023-03-01T04:24:12;100543.77;;;-1.11;100.00
17450;BME280;8842;51.244;7.102;2023-03-01T04:29:16;100557.34;;;-1.17;100.00
17450;BME280;8842;51.244;7.102;2023-03-01T04:34:21;100554.32;;;-1.21;100.00
17450;BME280;8842;51.244;7.102;2023-03-01T04:39:25;100560.42;;;-1.22;100.00
17450;BME280;8842;51.244;7.102;2023-03-01T04:44:29;100549.14;;;-1.24;100.00
17450;BME280;8842;51.244;7.102;2023-03-01T04:49:33;100540.48;;;-1.25;100.00
17450;BME280;8842;51.244;7.102;2023-03-01T04:54:37;100538.23;;;-1.19;100.00
17450;BME280;8842;51.244;7.102;2023-03-01T04:59:41;100534.31;;;-1.18;100.00
17450;BME280;8842;51.244;7.102;2023-03-01T05:04:45;100536.94;;;-1.19;100.00
17450;BME280;8842;51.244;7.102;2023-03-01T05:09:49;100529.23;;;-1.28;100.00
17450;BME280;8842;51.244;7.102;2023-03-01T05:14:53;100538.80;;;-1.30;100.00
17450;BME280;8842;51.244;7.102;2023-03-01T05:19:57;100533.50;;;-1.23;100.00
17450;BME280;8842;51.244;7.102;2023-03-01T05:25:04;100540.02;;;-1.24;100.00
17450;BME280;8842;51.244;7.102;2023-03-01T05:30:14;100532.75;;;-1.31;100.00
17450;BME280;8842;51.244;7.102;2023-03-01T05:35:18;100532.66;;;-1.23;100.00
17450;BME280;8842;51.244;7.102;2023-03-01T05:40:23;100523.48;;;-1.19;100.00
17450;BME280;8842;51.244;7.102;2023-03-01T05:45:28;100522.17;;;-1.19;100.00
17450;BME280;8842;51.244;7.102;2023-03-01T05:50:35;100525.17;;;-1.16;100.00
17450;BME280;8842;51.244;7.102;2023-03-01T05:55:40;100516.92;;;-1.16;100.00
17450;BME280;8842;51.244;7.102;2023-03-01T06:00:45;100516.94;;;-1.17;100.00
17450;BME280;8842;51.244;7.102;2023-03-01T06:05:49;100514.34;;;-1.17;100.00
17450;BME280;8842;51.244;7.102;2023-03-01T06:10:53;100513.52;;;-1.22;100.00
17450;BME280;8842;51.244;7.102;2023-03-01T06:15:57;100522.21;;;-1.22;100.00
17450;BME280;8842;51.244;7.102;2023-03-01T06:21:01;100518.30;;;-1.22;100.00
17450;BME280;8842;51.244;7.102;2023-03-01T06:26:06;100524.02;;;-1.28;100.00
17450;BME280;8842;51.244;7.102;2023-03-01T06:31:11;100525.36;;;-1.31;100.00
17450;BME280;8842;51.244;7.102;2023-03-01T06:36:15;100529.30;;;-1.34;100.00
17450;BME280;8842;51.244;7.102;2023-03-01T06:41:21;100527.98;;;-1.33;100.00
17450;BME280;8842;51.244;7.102;2023-03-01T06:46:25;100523.92;;;-1.21;100.00
17450;BME280;8842;51.244;7.102;2023-03-01T06:51:29;100514.74;;;-1.16;100.00
17450;BME280;8842;51.244;7.102;2023-03-01T06:56:33;100514.43;;;-1.25;100.00
17450;BME280;8842;51.244;7.102;2023-03-01T07:01:37;100515.59;;;-1.14;100.00
17450;BME280;8842;51.244;7.102;2023-03-01T07:11:54;100506.43;;;-0.80;100.00
17450;BME280;8842;51.244;7.102;2023-03-01T07:16:58;100503.91;;;-0.58;100.00
17450;BME280;8842;51.244;7.102;2023-03-01T07:22:03;100502.20;;;-0.34;100.00
17450;BME280;8842;51.244;7.102;2023-03-01T07:27:09;100502.20;;;-0.34;100.00
17450;BME280;8842;51.244;7.102;2023-03-01T07:32:14;100494.63;;;-0.23;100.00
17450;BME280;8842;51.244;7.102;2023-03-01T07:37:18;100488.90;;;0.04;100.00
17450;BME280;8842;51.244;7.102;2023-03-01T07:42:22;100490.25;;;0.27;100.00
17450;BME280;8842;51.244;7.102;2023-03-01T07:47:26;100491.50;;;0.52;97.56
17450;BME280;8842;51.244;7.102;2023-03-01T07:52:30;100490.63;;;0.72;97.37
17450;BME280;8842;51.244;7.102;2023-03-01T08:02:46;100499.41;;;0.69;95.80
17450;BME280;8842;51.244;7.102;2023-03-01T08:07:50;100506.25;;;1.14;94.27
17450;BME280;8842;51.244;7.102;2023-03-01T08:12:54;100495.47;;;1.82;87.26
17450;BME280;8842;51.244;7.102;2023-03-01T08:17:58;100497.55;;;2.03;88.11
17450;BME280;8842;51.244;7.102;2023-03-01T08:28:14;100491.09;;;1.65;87.37
17450;BME280;8842;51.244;7.102;2023-03-01T08:33:18;100485.30;;;2.03;85.00
17450;BME280;8842;51.244;7.102;2023-03-01T08:38:22;100494.26;;;1.95;82.50
17450;BME280;8842;51.244;7.102;2023-03-01T08:43:26;100491.52;;;1.99;85.40
17450;BME280;8842;51.244;7.102;2023-03-01T08:48:30;100490.97;;;2.21;85.77
17450;BME280;8842;51.244;7.102;2023-03-01T08:53:34;100491.28;;;2.57;82.05
17450;BME280;8842;51.244;7.102;2023-03-01T09:03:50;100479.13;;;3.53;72.81
17450;BME280;8842;51.244;7.102;2023-03-01T09:08:54;100482.45;;;3.58;73.62
17450;BME280;8842;51.244;7.102;2023-03-01T09:19:10;100487.30;;;3.83;71.97
17450;BME280;8842;51.244;7.102;2023-03-01T09:24:15;100481.74;;;3.92;70.14
17450;BME280;8842;51.244;7.102;2023-03-01T09:34:31;100471.54;;;3.83;72.55
17450;BME280;8842;51.244;7.102;2023-03-01T09:39:37;100458.94;;;4.05;71.37
17450;BME280;8842;51.244;7.102;2023-03-01T09:50:01;100442.74;;;4.18;69.10
17450;BME280;8842;51.244;7.102;2023-03-01T10:05:48;100438.72;;;4.78;65.22
17450;BME280;8842;51.244;7.102;2023-03-01T10:16:10;100424.49;;;4.61;69.45
17450;BME280;8842;51.244;7.102;2023-03-01T10:26:37;100427.75;;;4.79;67.02
17450;BME280;8842;51.244;7.102;2023-03-01T10:36:56;100415.30;;;5.05;63.51
17450;BME280;8842;51.244;7.102;2023-03-01T10:47:20;100410.66;;;5.43;63.13
17450;BME280;8842;51.244;7.102;2023-03-01T10:57:39;100382.59;;;5.74;61.51
17450;BME280;8842;51.244;7.102;2023-03-01T11:02:47;100391.45;;;5.83;61.22
17450;BME280;8842;51.244;7.102;2023-03-01T11:13:13;100380.54;;;6.21;58.97
17450;BME280;8842;51.244;7.102;2023-03-01T11:23:34;100353.72;;;6.40;60.15
17450;BME280;8842;51.244;7.102;2023-03-01T11:33:57;100335.72;;;6.58;60.41
17450;BME280;8842;51.244;7.102;2023-03-01T11:44:20;100341.08;;;6.38;56.01
17450;BME280;8842;51.244;7.102;2023-03-01T11:55:10;100334.91;;;6.66;56.62
17450;BME280;8842;51.244;7.102;2023-03-01T12:00:23;100328.69;;;6.30;57.98
17450;BME280;8842;51.244;7.102;2023-03-01T12:11:14;100318.97;;;6.86;54.22
17450;BME280;8842;51.244;7.102;2023-03-01T12:21:55;100300.63;;;7.52;55.18
17450;BME280;8842;51.244;7.102;2023-03-01T12:32:27;100285.70;;;7.34;55.52
17450;BME280;8842;51.244;7.102;2023-03-01T12:37:39;100281.18;;;7.70;56.23
17450;BME280;8842;51.244;7.102;2023-03-01T12:48:15;100275.98;;;8.01;54.12
17450;BME280;8842;51.244;7.102;2023-03-01T12:58:41;100261.52;;;6.91;57.13
17450;BME280;8842;51.244;7.102;2023-03-01T13:09:14;100254.34;;;6.49;58.36
17450;BME280;8842;51.244;7.102;2023-03-01T13:14:37;100258.38;;;6.47;59.96
17450;BME280;8842;51.244;7.102;2023-03-01T13:25:02;100242.84;;;6.77;58.36
17450;BME280;8842;51.244;7.102;2023-03-01T13:35:44;100239.29;;;6.24;61.23
17450;BME280;8842;51.244;7.102;2023-03-01T13:40:59;100232.50;;;6.37;60.42
17450;BME280;8842;51.244;7.102;2023-03-01T13:51:25;100230.22;;;6.92;58.42
17450;BME280;8842;51.244;7.102;2023-03-01T14:07:12;100215.98;;;6.14;60.63
17450;BME280;8842;51.244;7.102;2023-03-01T14:17:59;100208.25;;;6.47;58.60
17450;BME280;8842;51.244;7.102;2023-03-01T14:28:23;100199.34;;;6.04;60.81
17450;BME280;8842;51.244;7.102;2023-03-01T14:38:46;100176.25;;;5.90;61.47
17450;BME280;8842;51.244;7.102;2023-03-01T14:49:05;100156.63;;;5.77;60.12
17450;BME280;8842;51.244;7.102;2023-03-01T14:54:21;100154.80;;;5.98;58.86
17450;BME280;8842;51.244;7.102;2023-03-01T15:04:38;100140.02;;;6.40;57.05
17450;BME280;8842;51.244;7.102;2023-03-01T15:09:44;100143.08;;;5.95;58.24
17450;BME280;8842;51.244;7.102;2023-03-01T15:14:48;100139.73;;;5.83;57.94
17450;BME280;8842;51.244;7.102;2023-03-01T15:19:53;100134.44;;;5.73;59.78
17450;BME280;8842;51.244;7.102;2023-03-01T15:24:57;100136.27;;;5.81;59.02
17450;BME280;8842;51.244;7.102;2023-03-01T15:30:03;100128.70;;;5.83;57.91
17450;BME280;8842;51.244;7.102;2023-03-01T15:35:34;100117.00;;;5.70;59.07
17450;BME280;8842;51.244;7.102;2023-03-01T15:45:57;100111.05;;;5.85;58.06
17450;BME280;8842;51.244;7.102;2023-03-01T15:51:01;100106.86;;;5.81;60.20
17450;BME280;8842;51.244;7.102;2023-03-01T15:56:06;100103.33;;;5.81;58.81
17450;BME280;8842;51.244;7.102;2023-03-01T16:01:13;100100.16;;;5.64;61.86
17450;BME280;8842;51.244;7.102;2023-03-01T16:06:17;100107.48;;;5.58;61.29
17450;BME280;8842;51.244;7.102;2023-03-01T16:11:22;100098.46;;;5.63;58.23
17450;BME280;8842;51.244;7.102;2023-03-01T16:16:26;100086.75;;;5.60;60.06
17450;BME280;8842;51.244;7.102;2023-03-01T16:21:30;100101.94;;;5.45;60.82
17450;BME280;8842;51.244;7.102;2023-03-01T16:26:34;100095.73;;;5.46;60.43
17450;BME280;8842;51.244;7.102;2023-03-01T16:31:38;100087.03;;;5.54;60.81
17450;BME280;8842;51.244;7.102;2023-03-01T16:36:44;100092.58;;;5.48;60.35
17450;BME280;8842;51.244;7.102;2023-03-01T16:41:49;100101.11;;;5.53;59.25
17450;BME280;8842;51.244;7.102;2023-03-01T16:52:07;100092.96;;;5.49;59.87
17450;BME280;8842;51.244;7.102;2023-03-01T17:02:26;100096.92;;;5.31;61.58
17450;BME280;8842;51.244;7.102;2023-03-01T17:07:31;100110.95;;;5.21;60.24
17450;BME280;8842;51.244;7.102;2023-03-01T17:12:36;100110.15;;;5.19;62.43
17450;BME280;8842;51.244;7.102;2023-03-01T17:17:40;100118.41;;;5.02;62.94
17450;BME280;8842;51.244;7.102;2023-03-01T17:22:44;100110.77;;;4.96;61.85
17450;BME280;8842;51.244;7.102;2023-03-01T17:27:49;100114.60;;;4.89;62.18
17450;BME280;8842;51.244;7.102;2023-03-01T17:32:53;100112.44;;;4.78;62.04
17450;BME280;8842;51.244;7.102;2023-03-01T17:37:58;100116.38;;;4.78;62.24
17450;BME280;8842;51.244;7.102;2023-03-01T17:43:02;100122.70;;;4.74;62.77
17450;BME280;8842;51.244;7.102;2023-03-01T17:48:07;100116.38;;;4.78;63.85
17450;BME280;8842;51.244;7.102;2023-03-01T17:53:11;100119.47;;;4.68;64.17
17450;BME280;8842;51.244;7.102;2023-03-01T17:58:15;100125.98;;;4.59;64.38
17450;BME280;8842;51.244;7.102;2023-03-01T18:08:33;100129.00;;;4.60;64.39
17450;BME280;8842;51.244;7.102;2023-03-01T18:13:37;100126.17;;;4.55;65.04
17450;BME280;8842;51.244;7.102;2023-03-01T18:23:54;100126.94;;;4.47;67.18
17450;BME280;8842;51.244;7.102;2023-03-01T18:28:58;100127.67;;;4.40;68.15
17450;BME280;8842;51.244;7.102;2023-03-01T18:34:03;100121.87;;;4.42;66.63
17450;BME280;8842;51.244;7.102;2023-03-01T18:44:19;100111.64;;;4.46;66.14
17450;BME280;8842;51.244;7.102;2023-03-01T18:49:23;100117.28;;;4.37;67.85
17450;BME280;8842;51.244;7.102;2023-03-01T18:54:28;100103.20;;;4.38;66.19
17450;BME280;8842;51.244;7.102;2023-03-01T18:59:32;100103.26;;;4.27;66.31
17450;BME280;8842;51.244;7.102;2023-03-01T19:04:36;100099.62;;;4.19;68.34
17450;BME280;8842;51.244;7.102;2023-03-01T19:09:40;100084.67;;;4.09;66.92
17450;BME280;8842;51.244;7.102;2023-03-01T19:14:44;100087.64;;;4.02;67.32
17450;BME280;8842;51.244;7.102;2023-03-01T19:25:00;100076.27;;;4.01;67.59
17450;BME280;8842;51.244;7.102;2023-03-01T19:30:06;100075.16;;;4.07;67.81
17450;BME280;8842;51.244;7.102;2023-03-01T19:35:11;100080.15;;;4.03;69.41
17450;BME280;8842;51.244;7.102;2023-03-01T19:45:27;100075.64;;;3.95;69.03
17450;BME280;8842;51.244;7.102;2023-03-01T19:55:43;100062.43;;;3.86;70.23
17450;BME280;8842;51.244;7.102;2023-03-01T20:05:58;100075.72;;;3.72;71.94
17450;BME280;8842;51.244;7.102;2023-03-01T20:11:06;100069.01;;;3.65;73.35
17450;BME280;8842;51.244;7.102;2023-03-01T20:21:28;100069.90;;;3.64;74.16
17450;BME280;8842;51.244;7.102;2023-03-01T20:26:32;100062.80;;;3.56;75.53
17450;BME280;8842;51.244;7.102;2023-03-01T20:31:36;100068.52;;;3.44;75.99
17450;BME280;8842;51.244;7.102;2023-03-01T20:36:42;100067.77;;;3.40;76.31
17450;BME280;8842;51.244;7.102;2023-03-01T20:41:46;100073.47;;;3.40;77.19
17450;BME280;8842;51.244;7.102;2023-03-01T20:52:02;100071.70;;;3.40;77.56
17450;BME280;8842;51.244;7.102;2023-03-01T21:02:19;100065.05;;;3.32;78.19
17450;BME280;8842;51.244;7.102;2023-03-01T21:07:24;100067.37;;;3.16;79.69
17450;BME280;8842;51.244;7.102;2023-03-01T21:12:28;100066.07;;;3.05;80.83
17450;BME280;8842;51.244;7.102;2023-03-01T21:17:34;100065.73;;;3.02;82.31
17450;BME280;8842;51.244;7.102;2023-03-01T21:22:39;100073.83;;;2.96;82.88
17450;BME280;8842;51.244;7.102;2023-03-01T21:27:44;100066.91;;;2.94;82.08
17450;BME280;8842;51.244;7.102;2023-03-01T21:32:49;100071.31;;;2.93;82.00
17450;BME280;8842;51.244;7.102;2023-03-01T21:37:54;100069.73;;;3.01;81.89
17450;BME280;8842;51.244;7.102;2023-03-01T21:48:09;100060.06;;;2.90;84.48
17450;BME280;8842;51.244;7.102;2023-03-01T21:53:15;100066.95;;;2.81;83.51
17450;BME280;8842;51.244;7.102;2023-03-01T22:03:32;100057.49;;;2.77;83.90
17450;BME280;8842;51.244;7.102;2023-03-01T22:08:37;100059.34;;;2.62;86.90
17450;BME280;8842;51.244;7.102;2023-03-01T22:13:41;100053.53;;;2.54;88.71
17450;BME280;8842;51.244;7.102;2023-03-01T22:23:58;100052.44;;;2.48;88.48
17450;BME280;8842;51.244;7.102;2023-03-01T22:34:16;100058.39;;;2.40;88.53
17450;BME280;8842;51.244;7.102;2023-03-01T22:44:32;100059.20;;;2.42;86.51
17450;BME280;8842;51.244;7.102;2023-03-01T22:49:36;100058.88;;;2.38;86.43
17450;BME280;8842;51.244;7.102;2023-03-01T22:59:52;100065.09;;;2.35;88.07
17450;BME280;8842;51.244;7.102;2023-03-01T23:04:56;100060.82;;;2.33;87.34
17450;BME280;8842;51.244;7.102;2023-03-01T23:15:14;100052.61;;;2.17;89.06
17450;BME280;8842;51.244;7.102;2023-03-01T23:20:18;100057.61;;;2.12;91.02
17450;BME280;8842;51.244;7.102;2023-03-01T23:25:22;100053.27;;;1.97;91.39
17450;BME280;8842;51.244;7.102;2023-03-01T23:30:26;100052.05;;;1.94;90.38
17450;BME280;8842;51.244;7.102;2023-03-01T23:40:42;100050.35;;;1.93;93.29
17450;BME280;8842;51.244;7.102;2023-03-01T23:45:46;100056.17;;;1.88;91.41
17450;BME280;8842;51.244;7.102;2023-03-01T23:50:50;100057.91;;;1.89;90.54
17450;BME280;8842;51.244;7.102;2023-03-01T23:55:55;100058.89;;;1.85;90.49
